sensor_id;sensor_type;location;lat;lon;timestamp;P1;durP1;ratioP1;P2;durP2;ratioP2
7519;SDS011;3801;48.876;10.184;2023-03-12T00:04:31;3.60;;;2.10;;
7519;SDS011;3801;48.876;10.184;2023-03-12T00:09:37;6.23;;;2.73;;
7519;SDS011;3801;48.876;10.184;2023-03-12T00:14:41;6.70;;;2.67;;
7519;SDS011;3801;48.876;10.184;2023-03-12T00:19:49;4.80;;;2.20;;
7519;SDS011;3801;48.876;10.184;2023-03-12T00:24:53;2.63;;;2.00;;
7519;SDS011;3801;48.876;10.184;2023-03-12T00:30:00;5.73;;;2.23;;
7519;SDS011;3801;48.876;10.184;2023-03-12T00:35:06;2.90;;;2.20;;
7519;SDS011;3801;48.876;10.184;2023-03-12T00:40:10;3.40;;;2.27;;
7519;SDS011;3801;48.876;10.184;2023-03-12T00:45:14;3.33;;;2.53;;
7519;SDS011;3801;48.876;10.184;2023-03-12T00:50:18;4.07;;;2.13;;
7519;SDS011;3801;48.876;10.184;2023-03-12T00:55:22;2.00;;;1.90;;
7519;SDS011;3801;48.876;10.184;2023-03-12T01:00:25;3.77;;;2.00;;
7519;SDS011;3801;48.876;10.184;2023-03-12T01:05:30;1.53;;;1.43;;
7519;SDS011;3801;48.876;10.184;2023-03-12T01:10:39;1.67;;;1.57;;
7519;SDS011;3801;48.876;10.184;2023-03-12T01:15:43;2.20;;;1.87;;
7519;SDS011;3801;48.876;10.184;2023-03-12T01:20:48;2.70;;;1.97;;
7519;SDS011;3801;48.876;10.184;2023-03-12T01:25:52;5.53;;;1.93;;
7519;SDS011;3801;48.876;10.184;2023-03-12T01:30:56;4.20;;;1.97;;
7519;SDS011;3801;48.876;10.184;2023-03-12T01:36:01;5.70;;;1.73;;
7519;SDS011;3801;48.876;10.184;2023-03-12T01:41:05;3.77;;;1.90;;
7519;SDS011;3801;48.876;10.184;2023-03-12T01:46:20;3.57;;;1.83;;
7519;SDS011;3801;48.876;10.184;2023-03-12T01:51:29;2.27;;;1.70;;
7519;SDS011;3801;48.876;10.184;2023-03-12T01:56:34;1.90;;;1.70;;
7519;SDS011;3801;48.876;10.184;2023-03-12T02:01:38;3.17;;;1.83;;
7519;SDS011;3801;48.876;10.184;2023-03-12T02:06:47;2.27;;;1.70;;
7519;SDS011;3801;48.876;10.184;2023-03-12T02:11:51;3.90;;;1.80;;
7519;SDS011;3801;48.876;10.184;2023-03-12T02:16:54;1.77;;;1.67;;
7519;SDS011;3801;48.876;10.184;2023-03-12T02:21:59;4.20;;;2.07;;
7519;SDS011;3801;48.876;10.184;2023-03-12T02:27:05;8.03;;;1.83;;
7519;SDS011;3801;48.876;10.184;2023-03-12T02:32:12;4.60;;;2.40;;
7519;SDS011;3801;48.876;10.184;2023-03-12T02:37:17;4.60;;;1.87;;
7519;SDS011;3801;48.876;10.184;2023-03-12T02:42:22;4.07;;;2.10;;
7519;SDS011;3801;48.876;10.184;2023-03-12T02:47:26;2.40;;;2.20;;
7519;SDS011;3801;48.876;10.184;2023-03-12T02:52:30;2.23;;;1.80;;
7519;SDS011;3801;48.876;10.184;2023-03-12T02:57:38;1.93;;;1.70;;
7519;SDS011;3801;48.876;10.184;2023-03-12T03:02:45;2.40;;;1.73;;
7519;SDS011;3801;48.876;10.184;2023-03-12T03:07:48;3.90;;;2.00;;
7519;SDS011;3801;48.876;10.184;2023-03-12T03:12:54;3.87;;;1.90;;
7519;SDS011;3801;48.876;10.184;2023-03-12T03:17:58;2.43;;;2.00;;
7519;SDS011;3801;48.876;10.184;2023-03-12T03:23:05;2.20;;;1.63;;
7519;SDS011;3801;48.876;10.184;2023-03-12T03:28:10;5.07;;;1.70;;
7519;SDS011;3801;48.876;10.184;2023-03-12T03:33:14;2.70;;;1.80;;
7519;SDS011;3801;48.876;10.184;2023-03-12T03:38:17;6.83;;;2.20;;
7519;SDS011;3801;48.876;10.184;2023-03-12T03:43:22;5.13;;;2.10;;
7519;SDS011;3801;48.876;10.184;2023-03-12T03:48:26;3.07;;;2.10;;
7519;SDS011;3801;48.876;10.184;2023-03-12T03:53:29;4.63;;;2.53;;
7519;SDS011;3801;48.876;10.184;2023-03-12T03:58:35;2.60;;;2.20;;
7519;SDS011;3801;48.876;10.184;2023-03-12T04:03:39;3.00;;;1.77;;
7519;SDS011;3801;48.876;10.184;2023-03-12T04:08:43;2.17;;;1.97;;
7519;SDS011;3801;48.876;10.184;2023-03-12T04:13:50;2.87;;;2.00;;
7519;SDS011;3801;48.876;10.184;2023-03-12T04:18:57;3.50;;;1.80;;
7519;SDS011;3801;48.876;10.184;2023-03-12T04:24:01;3.40;;;2.10;;
7519;SDS011;3801;48.876;10.184;2023-03-12T04:29:10;3.73;;;1.93;;
7519;SDS011;3801;48.876;10.184;2023-03-12T04:34:14;5.73;;;2.40;;
7519;SDS011;3801;48.876;10.184;2023-03-12T04:39:21;2.57;;;2.23;;
7519;SDS011;3801;48.876;10.184;2023-03-12T04:44:27;4.70;;;2.10;;
7519;SDS011;3801;48.876;10.184;2023-03-12T04:49:31;3.87;;;2.27;;
7519;SDS011;3801;48.876;10.184;2023-03-12T04:54:35;2.90;;;2.20;;
7519;SDS011;3801;48.876;10.184;2023-03-12T04:59:40;3.17;;;2.23;;
7519;SDS011;3801;48.876;10.184;2023-03-12T05:04:43;4.93;;;2.53;;
7519;SDS011;3801;48.876;10.184;2023-03-12T05:09:47;3.70;;;2.70;;
7519;SDS011;3801;48.876;10.184;2023-03-12T05:14:52;3.37;;;2.80;;
7519;SDS011;3801;48.876;10.184;2023-03-12T05:19:56;3.27;;;1.93;;
7519;SDS011;3801;48.876;10.184;2023-03-12T05:25:00;3.20;;;2.10;;
7519;SDS011;3801;48.876;10.184;2023-03-12T05:30:06;4.03;;;2.63;;
7519;SDS011;3801;48.876;10.184;2023-03-12T05:35:11;5.40;;;2.60;;
7519;SDS011;3801;48.876;10.184;2023-03-12T05:40:16;2.43;;;2.17;;
7519;SDS011;3801;48.876;10.184;2023-03-12T05:45:22;3.87;;;2.60;;
7519;SDS011;3801;48.876;10.184;2023-03-12T05:50:28;4.50;;;2.77;;
7519;SDS011;3801;48.876;10.184;2023-03-12T05:55:33;4.67;;;3.30;;
7519;SDS011;3801;48.876;10.184;2023-03-12T06:00:39;10.73;;;5.67;;
7519;SDS011;3801;48.876;10.184;2023-03-12T06:05:45;6.50;;;3.00;;
7519;SDS011;3801;48.876;10.184;2023-03-12T06:10:49;3.70;;;3.20;;
7519;SDS011;3801;48.876;10.184;2023-03-12T06:15:55;6.10;;;4.00;;
7519;SDS011;3801;48.876;10.184;2023-03-12T06:21:08;5.90;;;3.50;;
7519;SDS011;3801;48.876;10.184;2023-03-12T06:26:12;6.40;;;3.03;;
7519;SDS011;3801;48.876;10.184;2023-03-12T06:31:20;4.63;;;3.30;;
7519;SDS011;3801;48.876;10.184;2023-03-12T06:36:24;6.40;;;3.20;;
7519;SDS011;3801;48.876;10.184;2023-03-12T06:41:28;6.77;;;3.00;;
7519;SDS011;3801;48.876;10.184;2023-03-12T06:46:33;8.80;;;3.07;;
7519;SDS011;3801;48.876;10.184;2023-03-12T06:51:38;3.80;;;3.10;;
7519;SDS011;3801;48.876;10.184;2023-03-12T06:56:41;6.60;;;3.50;;
7519;SDS011;3801;48.876;10.184;2023-03-12T07:01:46;4.20;;;2.83;;
7519;SDS011;3801;48.876;10.184;2023-03-12T07:06:50;3.87;;;3.20;;
7519;SDS011;3801;48.876;10.184;2023-03-12T07:11:53;4.63;;;3.30;;
7519;SDS011;3801;48.876;10.184;2023-03-12T07:16:58;4.23;;;2.83;;
7519;SDS011;3801;48.876;10.184;2023-03-12T07:22:03;7.70;;;3.40;;
7519;SDS011;3801;48.876;10.184;2023-03-12T07:27:06;3.90;;;2.90;;
7519;SDS011;3801;48.876;10.184;2023-03-12T07:32:11;5.30;;;3.40;;
7519;SDS011;3801;48.876;10.184;2023-03-12T07:37:15;3.80;;;2.73;;
7519;SDS011;3801;48.876;10.184;2023-03-12T07:42:18;5.93;;;2.90;;
7519;SDS011;3801;48.876;10.184;2023-03-12T07:47:23;8.13;;;3.57;;
7519;SDS011;3801;48.876;10.184;2023-03-12T07:52:27;5.47;;;3.60;;
7519;SDS011;3801;48.876;10.184;2023-03-12T07:57:31;6.00;;;3.73;;
7519;SDS011;3801;48.876;10.184;2023-03-12T08:02:36;5.40;;;3.70;;
7519;SDS011;3801;48.876;10.184;2023-03-12T08:07:40;6.70;;;3.87;;
7519;SDS011;3801;48.876;10.184;2023-03-12T08:12:43;4.83;;;3.70;;
7519;SDS011;3801;48.876;10.184;2023-03-12T08:17:48;6.90;;;3.97;;
7519;SDS011;3801;48.876;10.184;2023-03-12T08:22:56;6.50;;;4.67;;
7519;SDS011;3801;48.876;10.184;2023-03-12T08:27:59;7.40;;;4.90;;
7519;SDS011;3801;48.876;10.184;2023-03-12T08:33:04;9.37;;;5.37;;
7519;SDS011;3801;48.876;10.184;2023-03-12T08:38:08;6.87;;;4.37;;
7519;SDS011;3801;48.876;10.184;2023-03-12T08:43:11;6.70;;;4.50;;
7519;SDS011;3801;48.876;10.184;2023-03-12T08:48:17;9.83;;;5.20;;
7519;SDS011;3801;48.876;10.184;2023-03-12T08:53:21;8.07;;;5.57;;
7519;SDS011;3801;48.876;10.184;2023-03-12T08:58:24;8.00;;;5.00;;
7519;SDS011;3801;48.876;10.184;2023-03-12T09:03:29;10.47;;;5.10;;
7519;SDS011;3801;48.876;10.184;2023-03-12T09:08:33;9.13;;;5.87;;
7519;SDS011;3801;48.876;10.184;2023-03-12T09:13:37;7.57;;;4.17;;
7519;SDS011;3801;48.876;10.184;2023-03-12T09:19:02;6.63;;;4.03;;
7519;SDS011;3801;48.876;10.184;2023-03-12T09:24:05;7.57;;;4.53;;
7519;SDS011;3801;48.876;10.184;2023-03-12T09:29:10;12.30;;;6.30;;
7519;SDS011;3801;48.876;10.184;2023-03-12T09:34:15;9.67;;;5.80;;
7519;SDS011;3801;48.876;10.184;2023-03-12T09:39:19;10.20;;;6.47;;
7519;SDS011;3801;48.876;10.184;2023-03-12T09:44:26;11.57;;;7.57;;
7519;SDS011;3801;48.876;10.184;2023-03-12T09:49:38;11.50;;;6.83;;
7519;SDS011;3801;48.876;10.184;2023-03-12T09:54:43;11.40;;;7.57;;
7519;SDS011;3801;48.876;10.184;2023-03-12T09:59:48;11.33;;;7.37;;
7519;SDS011;3801;48.876;10.184;2023-03-12T10:04:54;12.43;;;7.70;;
7519;SDS011;3801;48.876;10.184;2023-03-12T10:10:13;26.33;;;14.47;;
7519;SDS011;3801;48.876;10.184;2023-03-12T10:15:23;16.70;;;10.03;;
7519;SDS011;3801;48.876;10.184;2023-03-12T10:26:01;10.23;;;6.17;;
7519;SDS011;3801;48.876;10.184;2023-03-12T10:31:09;13.57;;;7.47;;
7519;SDS011;3801;48.876;10.184;2023-03-12T10:36:17;18.13;;;7.90;;
7519;SDS011;3801;48.876;10.184;2023-03-12T10:41:23;10.43;;;7.00;;
7519;SDS011;3801;48.876;10.184;2023-03-12T10:46:31;12.17;;;6.77;;
7519;SDS011;3801;48.876;10.184;2023-03-12T10:51:42;7.10;;;4.20;;
7519;SDS011;3801;48.876;10.184;2023-03-12T10:56:57;4.93;;;3.27;;
7519;SDS011;3801;48.876;10.184;2023-03-12T11:02:00;6.20;;;4.80;;
7519;SDS011;3801;48.876;10.184;2023-03-12T11:07:18;3.83;;;2.80;;
7519;SDS011;3801;48.876;10.184;2023-03-12T11:12:25;4.20;;;2.63;;
7519;SDS011;3801;48.876;10.184;2023-03-12T11:17:29;3.43;;;2.73;;
7519;SDS011;3801;48.876;10.184;2023-03-12T11:22:37;3.70;;;2.93;;
7519;SDS011;3801;48.876;10.184;2023-03-12T11:27:43;3.50;;;2.80;;
7519;SDS011;3801;48.876;10.184;2023-03-12T11:32:47;3.67;;;2.67;;
7519;SDS011;3801;48.876;10.184;2023-03-12T11:37:54;4.83;;;3.40;;
7519;SDS011;3801;48.876;10.184;2023-03-12T11:43:06;5.00;;;3.87;;
7519;SDS011;3801;48.876;10.184;2023-03-12T11:48:16;7.17;;;5.27;;
7519;SDS011;3801;48.876;10.184;2023-03-12T11:53:30;6.30;;;4.87;;
7519;SDS011;3801;48.876;10.184;2023-03-12T11:58:43;5.27;;;3.63;;
7519;SDS011;3801;48.876;10.184;2023-03-12T12:04:08;4.00;;;3.07;;
7519;SDS011;3801;48.876;10.184;2023-03-12T12:09:17;3.80;;;3.20;;
7519;SDS011;3801;48.876;10.184;2023-03-12T12:14:31;3.73;;;3.17;;
7519;SDS011;3801;48.876;10.184;2023-03-12T12:19:41;4.33;;;3.60;;
7519;SDS011;3801;48.876;10.184;2023-03-12T12:24:52;6.47;;;4.10;;
7519;SDS011;3801;48.876;10.184;2023-03-12T12:30:06;4.70;;;3.90;;
7519;SDS011;3801;48.876;10.184;2023-03-12T12:35:14;4.37;;;3.30;;
7519;SDS011;3801;48.876;10.184;2023-03-12T12:40:21;4.13;;;3.37;;
7519;SDS011;3801;48.876;10.184;2023-03-12T12:45:29;6.03;;;3.83;;
7519;SDS011;3801;48.876;10.184;2023-03-12T12:50:34;4.40;;;3.67;;
7519;SDS011;3801;48.876;10.184;2023-03-12T12:55:39;4.07;;;3.03;;
7519;SDS011;3801;48.876;10.184;2023-03-12T13:00:47;6.13;;;4.03;;
7519;SDS011;3801;48.876;10.184;2023-03-12T13:05:53;4.90;;;3.37;;
7519;SDS011;3801;48.876;10.184;2023-03-12T13:10:56;4.03;;;3.30;;
7519;SDS011;3801;48.876;10.184;2023-03-12T13:16:31;4.80;;;2.90;;
7519;SDS011;3801;48.876;10.184;2023-03-12T13:21:36;4.63;;;3.33;;
7519;SDS011;3801;48.876;10.184;2023-03-12T13:26:45;9.53;;;5.70;;
7519;SDS011;3801;48.876;10.184;2023-03-12T13:31:53;4.53;;;2.53;;
7519;SDS011;3801;48.876;10.184;2023-03-12T13:36:57;4.43;;;3.03;;
7519;SDS011;3801;48.876;10.184;2023-03-12T13:42:02;4.13;;;2.40;;
7519;SDS011;3801;48.876;10.184;2023-03-12T13:47:27;3.37;;;2.10;;
7519;SDS011;3801;48.876;10.184;2023-03-12T13:52:32;2.30;;;2.00;;
7519;SDS011;3801;48.876;10.184;2023-03-12T13:57:40;2.80;;;2.03;;
7519;SDS011;3801;48.876;10.184;2023-03-12T14:02:47;4.27;;;1.50;;
7519;SDS011;3801;48.876;10.184;2023-03-12T14:08:04;2.30;;;1.80;;
7519;SDS011;3801;48.876;10.184;2023-03-12T14:13:15;4.27;;;1.80;;
7519;SDS011;3801;48.876;10.184;2023-03-12T14:18:24;3.17;;;1.90;;
7519;SDS011;3801;48.876;10.184;2023-03-12T14:23:29;3.87;;;2.00;;
7519;SDS011;3801;48.876;10.184;2023-03-12T14:28:37;3.93;;;2.07;;
7519;SDS011;3801;48.876;10.184;2023-03-12T14:33:47;4.13;;;2.27;;
7519;SDS011;3801;48.876;10.184;2023-03-12T14:38:57;6.80;;;2.07;;
7519;SDS011;3801;48.876;10.184;2023-03-12T14:44:03;3.30;;;2.07;;
7519;SDS011;3801;48.876;10.184;2023-03-12T14:49:13;4.13;;;1.97;;
7519;SDS011;3801;48.876;10.184;2023-03-12T14:54:22;4.57;;;1.70;;
7519;SDS011;3801;48.876;10.184;2023-03-12T14:59:26;3.00;;;1.80;;
7519;SDS011;3801;48.876;10.184;2023-03-12T15:04:33;3.73;;;2.03;;
7519;SDS011;3801;48.876;10.184;2023-03-12T15:09:37;3.70;;;1.70;;
7519;SDS011;3801;48.876;10.184;2023-03-12T15:14:43;2.93;;;1.63;;
7519;SDS011;3801;48.876;10.184;2023-03-12T15:19:48;4.70;;;1.83;;
7519;SDS011;3801;48.876;10.184;2023-03-12T15:24:51;3.57;;;2.03;;
7519;SDS011;3801;48.876;10.184;2023-03-12T15:29:54;7.83;;;4.00;;
7519;SDS011;3801;48.876;10.184;2023-03-12T15:35:10;4.57;;;2.00;;
7519;SDS011;3801;48.876;10.184;2023-03-12T15:40:16;3.00;;;2.00;;
7519;SDS011;3801;48.876;10.184;2023-03-12T15:45:22;4.80;;;2.17;;
7519;SDS011;3801;48.876;10.184;2023-03-12T15:50:30;3.07;;;1.93;;
7519;SDS011;3801;48.876;10.184;2023-03-12T15:55:34;7.20;;;2.20;;
7519;SDS011;3801;48.876;10.184;2023-03-12T16:00:40;8.37;;;3.30;;
7519;SDS011;3801;48.876;10.184;2023-03-12T16:05:46;5.80;;;2.60;;
7519;SDS011;3801;48.876;10.184;2023-03-12T16:10:50;5.07;;;2.37;;
7519;SDS011;3801;48.876;10.184;2023-03-12T16:15:54;4.43;;;2.13;;
7519;SDS011;3801;48.876;10.184;2023-03-12T16:20:59;3.70;;;1.70;;
7519;SDS011;3801;48.876;10.184;2023-03-12T16:26:02;9.13;;;3.73;;
7519;SDS011;3801;48.876;10.184;2023-03-12T16:31:09;4.97;;;3.10;;
7519;SDS011;3801;48.876;10.184;2023-03-12T16:36:15;4.07;;;2.10;;
7519;SDS011;3801;48.876;10.184;2023-03-12T16:41:18;4.23;;;2.67;;
7519;SDS011;3801;48.876;10.184;2023-03-12T16:46:22;4.63;;;2.93;;
7519;SDS011;3801;48.876;10.184;2023-03-12T16:51:27;4.27;;;2.30;;
7519;SDS011;3801;48.876;10.184;2023-03-12T16:56:31;14.60;;;5.07;;
7519;SDS011;3801;48.876;10.184;2023-03-12T17:01:34;13.90;;;7.23;;
7519;SDS011;3801;48.876;10.184;2023-03-12T17:06:39;7.83;;;3.70;;
7519;SDS011;3801;48.876;10.184;2023-03-12T17:11:42;8.83;;;3.20;;
7519;SDS011;3801;48.876;10.184;2023-03-12T17:16:46;17.93;;;11.27;;
7519;SDS011;3801;48.876;10.184;2023-03-12T17:21:51;13.10;;;8.03;;
7519;SDS011;3801;48.876;10.184;2023-03-12T17:26:55;9.37;;;5.30;;
7519;SDS011;3801;48.876;10.184;2023-03-12T17:31:58;7.97;;;2.40;;
7519;SDS011;3801;48.876;10.184;2023-03-12T17:37:03;8.13;;;3.90;;
7519;SDS011;3801;48.876;10.184;2023-03-12T17:42:07;7.43;;;4.73;;
7519;SDS011;3801;48.876;10.184;2023-03-12T17:47:10;6.37;;;2.57;;
7519;SDS011;3801;48.876;10.184;2023-03-12T17:52:15;9.17;;;4.50;;
7519;SDS011;3801;48.876;10.184;2023-03-12T17:57:18;8.60;;;3.80;;
7519;SDS011;3801;48.876;10.184;2023-03-12T18:02:22;9.10;;;4.40;;
7519;SDS011;3801;48.876;10.184;2023-03-12T18:07:27;18.70;;;9.77;;
7519;SDS011;3801;48.876;10.184;2023-03-12T18:12:30;12.70;;;6.60;;
7519;SDS011;3801;48.876;10.184;2023-03-12T18:17:34;6.20;;;3.83;;
7519;SDS011;3801;48.876;10.184;2023-03-12T18:22:41;9.40;;;3.93;;
7519;SDS011;3801;48.876;10.184;2023-03-12T18:27:46;6.83;;;3.93;;
7519;SDS011;3801;48.876;10.184;2023-03-12T18:32:49;10.83;;;4.60;;
7519;SDS011;3801;48.876;10.184;2023-03-12T18:37:54;9.93;;;5.93;;
7519;SDS011;3801;48.876;10.184;2023-03-12T18:42:57;10.60;;;3.20;;
7519;SDS011;3801;48.876;10.184;2023-03-12T18:48:01;7.53;;;5.30;;
7519;SDS011;3801;48.876;10.184;2023-03-12T18:53:06;8.30;;;3.40;;
7519;SDS011;3801;48.876;10.184;2023-03-12T18:58:09;4.87;;;2.77;;
7519;SDS011;3801;48.876;10.184;2023-03-12T19:03:13;7.67;;;2.63;;
7519;SDS011;3801;48.876;10.184;2023-03-12T19:08:17;5.30;;;2.80;;
7519;SDS011;3801;48.876;10.184;2023-03-12T19:13:21;7.03;;;2.30;;
7519;SDS011;3801;48.876;10.184;2023-03-12T19:18:25;7.33;;;2.20;;
7519;SDS011;3801;48.876;10.184;2023-03-12T19:23:31;8.63;;;4.27;;
7519;SDS011;3801;48.876;10.184;2023-03-12T19:28:34;5.40;;;3.13;;
7519;SDS011;3801;48.876;10.184;2023-03-12T19:33:38;7.60;;;2.33;;
7519;SDS011;3801;48.876;10.184;2023-03-12T19:38:43;6.87;;;2.73;;
7519;SDS011;3801;48.876;10.184;2023-03-12T19:43:50;5.13;;;2.53;;
7519;SDS011;3801;48.876;10.184;2023-03-12T19:48:53;5.83;;;2.23;;
7519;SDS011;3801;48.876;10.184;2023-03-12T19:53:58;10.00;;;3.27;;
7519;SDS011;3801;48.876;10.184;2023-03-12T19:59:01;5.80;;;2.30;;
7519;SDS011;3801;48.876;10.184;2023-03-12T20:04:05;6.00;;;2.47;;
7519;SDS011;3801;48.876;10.184;2023-03-12T20:09:10;7.93;;;2.20;;
7519;SDS011;3801;48.876;10.184;2023-03-12T20:14:14;4.63;;;2.00;;
7519;SDS011;3801;48.876;10.184;2023-03-12T20:19:20;9.33;;;2.37;;
7519;SDS011;3801;48.876;10.184;2023-03-12T20:24:27;6.67;;;2.27;;
7519;SDS011;3801;48.876;10.184;2023-03-12T20:29:31;5.10;;;2.03;;
7519;SDS011;3801;48.876;10.184;2023-03-12T20:34:34;4.27;;;2.33;;
7519;SDS011;3801;48.876;10.184;2023-03-12T20:39:39;3.47;;;2.00;;
7519;SDS011;3801;48.876;10.184;2023-03-12T20:44:43;4.10;;;2.53;;
7519;SDS011;3801;48.876;10.184;2023-03-12T20:49:46;8.70;;;2.77;;
7519;SDS011;3801;48.876;10.184;2023-03-12T20:54:51;10.80;;;2.50;;
7519;SDS011;3801;48.876;10.184;2023-03-12T20:59:54;4.53;;;2.20;;
7519;SDS011;3801;48.876;10.184;2023-03-12T21:04:57;8.80;;;1.97;;
7519;SDS011;3801;48.876;10.184;2023-03-12T21:10:02;3.83;;;1.87;;
7519;SDS011;3801;48.876;10.184;2023-03-12T21:15:07;6.73;;;2.33;;
7519;SDS011;3801;48.876;10.184;2023-03-12T21:20:12;5.00;;;1.87;;
7519;SDS011;3801;48.876;10.184;2023-03-12T21:25:19;15.37;;;5.13;;
7519;SDS011;3801;48.876;10.184;2023-03-12T21:30:22;10.63;;;2.80;;
7519;SDS011;3801;48.876;10.184;2023-03-12T21:35:26;10.33;;;3.03;;
7519;SDS011;3801;48.876;10.184;2023-03-12T21:40:31;7.33;;;2.80;;
7519;SDS011;3801;48.876;10.184;2023-03-12T21:45:35;9.30;;;4.00;;
7519;SDS011;3801;48.876;10.184;2023-03-12T21:50:38;10.80;;;3.53;;
7519;SDS011;3801;48.876;10.184;2023-03-12T21:55:43;17.33;;;5.77;;
7519;SDS011;3801;48.876;10.184;2023-03-12T22:01:02;11.73;;;5.13;;
7519;SDS011;3801;48.876;10.184;2023-03-12T22:06:06;6.93;;;3.03;;
7519;SDS011;3801;48.876;10.184;2023-03-12T22:11:11;8.27;;;2.40;;
7519;SDS011;3801;48.876;10.184;2023-03-12T22:16:14;15.83;;;2.97;;
7519;SDS011;3801;48.876;10.184;2023-03-12T22:21:18;7.40;;;2.10;;
7519;SDS011;3801;48.876;10.184;2023-03-12T22:26:24;5.70;;;1.87;;
7519;SDS011;3801;48.876;10.184;2023-03-12T22:31:28;8.80;;;2.57;;
7519;SDS011;3801;48.876;10.184;2023-03-12T22:36:31;7.20;;;2.47;;
7519;SDS011;3801;48.876;10.184;2023-03-12T22:41:36;9.13;;;2.97;;
7519;SDS011;3801;48.876;10.184;2023-03-12T22:46:40;5.57;;;2.37;;
7519;SDS011;3801;48.876;10.184;2023-03-12T22:51:43;14.13;;;3.60;;
7519;SDS011;3801;48.876;10.184;2023-03-12T22:56:48;5.60;;;2.30;;
7519;SDS011;3801;48.876;10.184;2023-03-12T23:01:51;10.97;;;2.90;;
7519;SDS011;3801;48.876;10.184;2023-03-12T23:06:55;9.70;;;2.73;;
7519;SDS011;3801;48.876;10.184;2023-03-12T23:12:16;7.97;;;2.90;;
7519;SDS011;3801;48.876;10.184;2023-03-12T23:17:19;8.67;;;2.57;;
7519;SDS011;3801;48.876;10.184;2023-03-12T23:22:22;13.37;;;2.63;;
7519;SDS011;3801;48.876;10.184;2023-03-12T23:27:27;7.60;;;2.87;;
7519;SDS011;3801;48.876;10.184;2023-03-12T23:32:30;13.80;;;2.30;;
7519;SDS011;3801;48.876;10.184;2023-03-12T23:37:34;8.57;;;2.90;;
7519;SDS011;3801;48.876;10.184;2023-03-12T23:42:39;8.80;;;2.47;;
7519;SDS011;3801;48.876;10.184;2023-03-12T23:47:42;7.33;;;2.07;;
7519;SDS011;3801;48.876;10.184;2023-03-12T23:52:45;8.37;;;2.20;;
7519;SDS011;3801;48.876;10.184;2023-03-12T23:57:50;11.43;;;3.30;;
